Time;durP1;ratioP1;P1;durP2;ratioP2;P2;SDS_P1;SDS_P2;PMS_P1;PMS_P2;Temp;Humidity;BMP_temperature;BMP_pressure;BME280_temperature;BME280_humidity;BME280_pressure;Samples;Min_cycle;Max_cycle;Signal;HPM_P1;HPM_P2
2022/01/05 00:01:22;;;;;;;5.25;1.52;;;4.20;99.90;;;;;;5110985;28;20169;-46
2022/01/05 00:03:48;;;;;;;4.22;1.52;;;4.20;99.90;;;;;;5111227;28;20169;-46
2022/01/05 00:06:13;;;;;;;3.90;1.27;;;4.20;99.90;;;;;;5110837;28;20319;-47
2022/01/05 00:08:39;;;;;;;3.10;1.20;;;4.00;99.90;;;;;;5110527;28;20201;-45
2022/01/05 00:11:06;;;;;;;1.92;1.30;;;3.80;99.90;;;;;;5110537;28;20646;-46
2022/01/05 00:13:32;;;;;;;4.32;1.40;;;3.70;99.90;;;;;;5110786;28;20169;-46
2022/01/05 00:15:58;;;;;;;4.72;1.25;;;3.60;99.90;;;;;;5111265;28;20173;-46
2022/01/05 00:18:23;;;;;;;1.63;1.15;;;3.60;99.90;;;;;;5110754;28;20260;-46
2022/01/05 00:20:49;;;;;;;3.97;1.40;;;3.70;99.90;;;;;;5110752;28;20186;-46
2022/01/05 00:23:15;;;;;;;3.25;1.30;;;3.50;99.90;;;;;;5110997;28;20184;-48
2022/01/05 00:25:40;;;;;;;8.68;1.83;;;3.60;99.90;;;;;;5110939;28;20165;-48
2022/01/05 00:28:07;;;;;;;2.75;1.17;;;3.70;99.90;;;;;;5112182;28;20205;-49
2022/01/05 00:30:33;;;;;;;2.15;1.25;;;3.70;99.90;;;;;;5111969;28;20259;-48
2022/01/05 00:32:58;;;;;;;2.80;1.13;;;3.70;99.90;;;;;;5112579;28;20169;-48
2022/01/05 00:35:24;;;;;;;4.43;1.90;;;3.80;99.90;;;;;;5112235;28;20640;-48
2022/01/05 00:37:49;;;;;;;3.03;1.67;;;3.80;99.90;;;;;;5114360;28;20164;-47
2022/01/05 00:40:15;;;;;;;3.35;1.50;;;3.70;99.90;;;;;;5115866;28;20163;-48
2022/01/05 00:42:41;;;;;;;4.57;2.38;;;3.70;99.90;;;;;;5116007;28;20220;-47
2022/01/05 00:45:07;;;;;;;5.68;2.40;;;3.70;99.90;;;;;;5115764;28;20651;-48
2022/01/05 00:47:32;;;;;;;5.57;2.80;;;3.70;99.90;;;;;;5115678;28;20208;-48
2022/01/05 00:49:58;;;;;;;6.10;2.45;;;3.80;99.90;;;;;;5115890;28;20250;-47
2022/01/05 00:52:24;;;;;;;6.88;2.80;;;3.90;99.90;;;;;;5115471;28;20160;-48
2022/01/05 00:54:49;;;;;;;7.80;2.80;;;3.90;99.90;;;;;;5115511;28;20176;-47
2022/01/05 00:57:15;;;;;;;5.22;2.85;;;4.00;99.90;;;;;;5115510;28;20169;-47
2022/01/05 00:59:41;;;;;;;4.38;2.83;;;4.10;99.90;;;;;;5115650;28;20540;-47
2022/01/05 01:02:07;;;;;;;3.65;3.08;;;4.00;99.90;;;;;;5115455;28;20193;-48
2022/01/05 01:04:32;;;;;;;7.00;3.20;;;4.00;99.90;;;;;;5115306;28;20705;-48
2022/01/05 01:06:58;;;;;;;5.55;2.85;;;3.90;99.90;;;;;;5115678;28;20160;-47
2022/01/05 01:09:23;;;;;;;7.75;2.83;;;3.90;99.90;;;;;;5115162;28;20220;-47
2022/01/05 01:11:49;;;;;;;3.28;2.60;;;3.90;99.90;;;;;;5114926;28;20229;-47
2022/01/05 01:14:15;;;;;;;9.48;3.05;;;3.90;99.90;;;;;;5115240;28;20171;-48
2022/01/05 01:16:40;;;;;;;4.13;2.85;;;3.80;99.90;;;;;;5115276;28;20696;-46
2022/01/05 01:19:06;;;;;;;7.45;2.63;;;3.80;99.90;;;;;;5115077;28;20525;-47
2022/01/05 01:21:31;;;;;;;3.47;2.35;;;3.80;99.90;;;;;;5115167;28;20563;-47
2022/01/05 01:23:57;;;;;;;5.03;2.58;;;3.80;99.90;;;;;;5115419;28;20193;-48
2022/01/05 01:26:25;;;;;;;6.55;2.60;;;3.80;99.90;;;;;;5114911;28;20164;-49
2022/01/05 01:28:51;;;;;;;4.50;2.38;;;3.80;99.90;;;;;;5114732;28;20295;-48
2022/01/05 01:31:17;;;;;;;3.17;1.73;;;3.80;99.90;;;;;;5114871;28;20252;-49
2022/01/05 01:33:43;;;;;;;5.40;2.88;;;3.70;99.90;;;;;;5114721;28;20165;-48
2022/01/05 01:36:08;;;;;;;4.50;2.47;;;3.70;99.90;;;;;;5114747;28;20157;-49
2022/01/05 01:38:34;;;;;;;8.93;3.05;;;3.80;99.90;;;;;;5114601;28;20251;-48
2022/01/05 01:40:59;;;;;;;7.97;2.88;;;3.70;99.90;;;;;;5114918;28;20210;-48
2022/01/05 01:43:25;;;;;;;7.47;3.13;;;3.70;99.90;;;;;;5114599;28;20160;-48
2022/01/05 01:45:50;;;;;;;6.43;3.30;;;3.60;99.90;;;;;;5096354;28;20178;-48
2022/01/05 01:48:16;;;;;;;6.18;3.47;;;3.70;99.90;;;;;;5113618;28;20191;-48
2022/01/05 01:50:41;;;;;;;12.82;4.07;;;3.70;99.90;;;;;;5114360;28;20707;-49
2022/01/05 01:53:07;;;;;;;5.88;3.35;;;3.70;99.90;;;;;;5114482;28;20171;-48
2022/01/05 01:55:34;;;;;;;8.32;4.13;;;3.60;99.90;;;;;;5114246;28;20258;-48
2022/01/05 01:58:01;;;;;;;6.03;3.65;;;3.70;99.90;;;;;;5114855;28;20528;-48
2022/01/05 02:00:29;;;;;;;5.68;3.80;;;3.70;99.90;;;;;;5114638;28;20226;-48
2022/01/05 02:02:55;;;;;;;6.50;4.32;;;3.60;99.90;;;;;;5114125;28;20502;-48
2022/01/05 02:05:21;;;;;;;7.45;4.63;;;3.60;99.90;;;;;;5114213;28;20644;-47
2022/01/05 02:07:46;;;;;;;11.65;5.30;;;3.60;99.90;;;;;;5114072;28;20222;-48
2022/01/05 02:10:12;;;;;;;5.65;3.83;;;3.60;99.90;;;;;;5114007;28;20560;-47
2022/01/05 02:12:38;;;;;;;14.27;4.43;;;3.60;99.90;;;;;;5113859;28;20212;-48
2022/01/05 02:15:05;;;;;;;8.15;5.53;;;3.60;99.90;;;;;;5113936;28;20632;-47
2022/01/05 02:17:44;;;;;;;12.00;5.40;;;3.60;99.90;;;;;;5114151;28;20176;-47
2022/01/05 02:20:15;;;;;;;5.95;4.53;;;3.30;99.90;;;;;;5114085;28;20199;-47
2022/01/05 02:22:41;;;;;;;10.63;5.10;;;3.60;99.90;;;;;;5113831;28;20631;-48
2022/01/05 02:25:07;;;;;;;11.32;5.03;;;3.60;99.90;;;;;;5113848;28;20193;-47
2022/01/05 02:27:32;;;;;;;7.28;3.40;;;3.60;99.90;;;;;;5113787;28;20168;-47
2022/01/05 02:29:58;;;;;;;10.32;3.90;;;3.60;99.90;;;;;;5113941;28;20200;-48
2022/01/05 02:32:23;;;;;;;12.88;3.15;;;3.60;99.90;;;;;;5113575;28;20161;-47
2022/01/05 02:34:49;;;;;;;9.88;3.25;;;3.60;99.90;;;;;;5113563;28;20177;-48
2022/01/05 02:37:15;;;;;;;6.65;3.40;;;3.60;99.90;;;;;;5113827;28;20218;-47
2022/01/05 02:39:40;;;;;;;10.57;3.47;;;3.50;99.90;;;;;;5113413;28;20165;-47
2022/01/05 02:42:06;;;;;;;5.25;3.22;;;3.60;99.90;;;;;;5113399;28;20646;-47
2022/01/05 02:44:32;;;;;;;7.15;2.58;;;3.50;99.90;;;;;;5113417;28;20184;-47
2022/01/05 02:46:57;;;;;;;8.55;3.58;;;3.50;99.90;;;;;;5113875;28;20164;-48
2022/01/05 02:49:23;;;;;;;7.45;2.70;;;3.50;99.90;;;;;;5094903;28;20215;-48
2022/01/05 02:51:49;;;;;;;10.23;3.95;;;3.50;99.90;;;;;;5113154;28;20165;-47
2022/01/05 02:54:14;;;;;;;11.40;3.20;;;3.50;99.90;;;;;;5113177;28;20226;-48
2022/01/05 02:56:40;;;;;;;6.72;3.42;;;3.50;99.90;;;;;;5113165;28;20232;-48
2022/01/05 02:59:05;;;;;;;7.05;3.83;;;3.50;99.90;;;;;;5113054;28;20177;-46
2022/01/05 03:01:31;;;;;;;9.02;3.53;;;3.40;99.90;;;;;;5112935;28;20173;-47
2022/01/05 03:03:56;;;;;;;9.95;3.47;;;3.40;99.90;;;;;;5113903;28;20165;-47
2022/01/05 03:06:22;;;;;;;9.77;2.67;;;3.40;99.90;;;;;;5113221;28;20211;-48
2022/01/05 03:08:47;;;;;;;9.30;3.60;;;3.40;99.90;;;;;;5112887;28;20261;-47
2022/01/05 03:11:13;;;;;;;5.78;3.03;;;3.40;99.90;;;;;;5112765;28;20211;-47
2022/01/05 03:13:38;;;;;;;12.15;3.50;;;3.40;99.90;;;;;;5112803;28;20173;-47
2022/01/05 03:16:04;;;;;;;7.22;3.10;;;3.40;99.90;;;;;;5112747;28;20161;-47
2022/01/05 03:18:30;;;;;;;9.70;3.42;;;3.30;99.90;;;;;;5113142;28;20160;-47
2022/01/05 03:20:55;;;;;;;12.60;3.25;;;3.30;99.90;;;;;;5112705;28;20507;-47
2022/01/05 03:23:21;;;;;;;8.02;3.42;;;3.30;99.90;;;;;;5112701;28;20165;-47
2022/01/05 03:25:46;;;;;;;5.38;2.17;;;3.30;99.90;;;;;;5112719;28;20309;-48
2022/01/05 03:28:12;;;;;;;14.52;3.58;;;3.20;99.90;;;;;;5112574;28;20634;-48
2022/01/05 03:30:39;;;;;;;8.10;2.97;;;3.20;99.90;;;;;;5112860;28;20205;-47
2022/01/05 03:35:36;;;;;;;14.05;4.15;;;3.20;99.90;;;;;;5112828;28;20251;-47
2022/01/05 03:38:03;;;;;;;13.43;4.15;;;3.10;99.90;;;;;;5112527;28;20164;-47
2022/01/05 03:40:30;;;;;;;7.40;3.58;;;3.10;99.90;;;;;;5112824;28;20168;-47
2022/01/05 03:42:56;;;;;;;11.00;4.18;;;3.10;99.90;;;;;;5112834;28;20247;-47
2022/01/05 03:45:22;;;;;;;12.35;3.80;;;3.10;99.90;;;;;;5112521;28;20305;-47
2022/01/05 03:47:47;;;;;;;5.57;2.58;;;3.10;99.90;;;;;;5112422;28;20620;-47
2022/01/05 03:50:13;;;;;;;12.65;4.25;;;3.00;99.90;;;;;;5112353;28;20289;-46
2022/01/05 03:52:38;;;;;;;7.72;3.72;;;3.10;99.90;;;;;;5112352;28;20172;-47
2022/01/05 03:55:05;;;;;;;5.85;3.03;;;3.00;99.90;;;;;;5112535;28;20164;-47
2022/01/05 03:57:32;;;;;;;6.88;3.25;;;3.00;99.90;;;;;;5112444;28;20178;-47
2022/01/05 03:59:58;;;;;;;4.63;3.33;;;3.00;99.90;;;;;;5112931;28;20168;-47
2022/01/05 04:02:23;;;;;;;12.15;4.22;;;2.90;99.90;;;;;;5112328;28;20168;-47
2022/01/05 04:04:49;;;;;;;9.43;2.55;;;2.90;99.90;;;;;;5112275;28;20237;-47
2022/01/05 04:07:16;;;;;;;5.93;2.65;;;2.90;99.90;;;;;;5112469;28;20157;-47
2022/01/05 04:09:41;;;;;;;7.78;2.35;;;2.80;99.90;;;;;;5112445;28;20204;-48
2022/01/05 04:12:07;;;;;;;8.30;3.55;;;2.90;99.90;;;;;;5113455;28;20243;-47
2022/01/05 04:14:33;;;;;;;7.55;2.70;;;2.90;99.90;;;;;;5116580;28;20172;-47
2022/01/05 04:16:58;;;;;;;13.63;3.45;;;2.90;99.90;;;;;;5116591;28;20636;-47
2022/01/05 04:19:24;;;;;;;7.78;3.15;;;2.90;99.90;;;;;;5116195;28;20176;-47
2022/01/05 04:21:50;;;;;;;12.13;3.05;;;2.90;99.90;;;;;;5116459;28;20260;-47
2022/01/05 04:24:16;;;;;;;6.50;3.15;;;2.80;99.90;;;;;;5116212;28;20269;-47
2022/01/05 04:26:41;;;;;;;7.80;2.75;;;2.80;99.90;;;;;;5115991;28;20189;-48
2022/01/05 04:29:07;;;;;;;12.98;2.65;;;2.80;99.90;;;;;;5097675;28;20226;-47
2022/01/05 04:31:33;;;;;;;3.55;1.95;;;2.80;99.90;;;;;;5115993;28;20638;-48
2022/01/05 04:33:58;;;;;;;9.63;2.22;;;2.80;99.90;;;;;;5116511;28;20179;-47
2022/01/05 04:36:24;;;;;;;11.50;3.38;;;2.70;99.90;;;;;;5116174;28;20165;-47
2022/01/05 04:38:49;;;;;;;5.93;2.53;;;2.70;99.90;;;;;;5115843;28;20641;-47
2022/01/05 04:41:15;;;;;;;7.20;2.60;;;2.70;99.90;;;;;;5115998;28;20251;-47
2022/01/05 04:43:40;;;;;;;13.25;2.70;;;2.70;99.90;;;;;;5115715;28;20161;-47
2022/01/05 04:46:06;;;;;;;2.55;1.95;;;2.70;99.90;;;;;;5115623;28;20160;-47
2022/01/05 04:48:32;;;;;;;18.00;2.72;;;2.60;99.90;;;;;;5115476;28;20311;-46
2022/01/05 04:50:57;;;;;;;9.10;2.85;;;2.60;99.90;;;;;;5115809;28;20173;-47
2022/01/05 04:53:23;;;;;;;7.50;2.83;;;2.60;99.90;;;;;;5115507;28;20172;-47
2022/01/05 04:55:48;;;;;;;11.43;2.83;;;2.60;99.90;;;;;;5115521;28;20172;-47
2022/01/05 04:58:14;;;;;;;8.98;2.72;;;2.60;99.90;;;;;;5115421;28;20165;-47
2022/01/05 05:00:39;;;;;;;10.32;2.88;;;2.60;99.90;;;;;;5115384;28;20164;-47
2022/01/05 05:03:05;;;;;;;7.40;2.33;;;2.60;99.90;;;;;;5115396;28;20173;-47
2022/01/05 05:05:31;;;;;;;9.68;3.00;;;2.50;99.90;;;;;;5115583;28;20160;-47
2022/01/05 05:07:58;;;;;;;11.20;1.95;;;2.50;99.90;;;;;;5115781;28;20175;-47
2022/01/05 05:10:24;;;;;;;7.07;2.97;;;2.50;99.90;;;;;;5115146;28;20548;-47
2022/01/05 05:12:49;;;;;;;3.95;2.15;;;2.60;99.90;;;;;;5114932;28;20219;-47
2022/01/05 05:15:15;;;;;;;7.70;2.33;;;2.40;99.90;;;;;;5115142;28;20541;-47
2022/01/05 05:17:40;;;;;;;18.05;3.63;;;2.50;99.90;;;;;;5115114;28;20169;-48
2022/01/05 05:20:06;;;;;;;8.57;2.72;;;2.50;99.90;;;;;;5115101;28;20247;-47
2022/01/05 05:22:31;;;;;;;10.18;3.03;;;2.50;99.90;;;;;;5096487;28;20253;-46
2022/01/05 05:24:58;;;;;;;11.55;3.33;;;2.50;99.90;;;;;;5114264;28;20180;-47
2022/01/05 05:27:23;;;;;;;13.35;2.33;;;2.50;99.90;;;;;;5115158;28;20172;-48
2022/01/05 05:29:49;;;;;;;8.80;2.58;;;2.50;99.90;;;;;;5114776;28;20215;-48
2022/01/05 05:32:14;;;;;;;7.72;2.30;;;2.40;99.90;;;;;;5115040;28;20168;-48
2022/01/05 05:34:40;;;;;;;10.07;2.75;;;2.50;99.90;;;;;;5114928;28;20168;-47
2022/01/05 05:37:06;;;;;;;11.57;2.42;;;2.50;99.90;;;;;;5114391;28;20198;-48
2022/01/05 05:39:31;;;;;;;5.75;1.65;;;2.40;99.90;;;;;;5114467;28;20229;-48
2022/01/05 05:41:57;;;;;;;11.77;2.42;;;2.40;99.90;;;;;;5114991;28;20165;-48
2022/01/05 05:44:22;;;;;;;11.95;3.95;;;2.40;99.90;;;;;;5114601;28;20169;-48
2022/01/05 05:46:48;;;;;;;7.85;2.40;;;2.50;99.90;;;;;;5114512;28;20200;-49
2022/01/05 05:49:13;;;;;;;11.82;2.45;;;2.40;99.90;;;;;;5114397;28;20281;-48
2022/01/05 05:51:39;;;;;;;6.82;2.20;;;2.40;99.90;;;;;;5114362;28;20655;-48
2022/01/05 05:54:05;;;;;;;10.30;2.13;;;2.50;99.90;;;;;;5114407;28;20259;-47
2022/01/05 05:56:30;;;;;;;8.85;2.85;;;2.40;99.90;;;;;;5114845;28;20617;-49
2022/01/05 05:58:56;;;;;;;11.75;2.72;;;0.90;99.90;;;;;;5114851;28;20651;-49
2022/01/05 06:01:22;;;;;;;12.13;2.90;;;2.50;99.90;;;;;;5114170;28;20184;-48
2022/01/05 06:03:47;;;;;;;9.43;2.75;;;2.50;99.90;;;;;;5114176;28;20243;-48
2022/01/05 06:06:13;;;;;;;10.63;2.20;;;2.50;99.90;;;;;;5114115;28;20173;-48
2022/01/05 06:08:39;;;;;;;11.90;2.60;;;2.60;99.90;;;;;;5114324;28;20211;-48
2022/01/05 06:11:06;;;;;;;6.28;2.22;;;2.60;99.90;;;;;;5114121;28;20217;-48
2022/01/05 06:13:32;;;;;;;8.43;2.10;;;2.60;99.90;;;;;;5114226;28;20301;-48
2022/01/05 06:15:57;;;;;;;5.57;2.05;;;2.60;99.90;;;;;;5113961;28;20237;-49
2022/01/05 06:18:23;;;;;;;4.72;1.92;;;2.60;99.90;;;;;;5113502;28;20161;-48
2022/01/05 06:20:48;;;;;;;13.00;3.15;;;2.60;99.90;;;;;;5113859;28;20689;-48
2022/01/05 06:23:14;;;;;;;9.20;2.08;;;2.60;99.90;;;;;;5113696;28;20188;-47
2022/01/05 06:25:39;;;;;;;5.60;1.90;;;2.60;99.90;;;;;;5113641;28;20184;-48
2022/01/05 06:28:08;;;;;;;9.10;2.65;;;2.60;99.90;;;;;;5113671;28;20228;-48
2022/01/05 06:30:34;;;;;;;14.77;3.35;;;2.60;99.90;;;;;;5113906;28;20184;-47
2022/01/05 06:32:59;;;;;;;6.10;1.60;;;2.70;99.90;;;;;;5113795;28;20584;-46
2022/01/05 06:35:25;;;;;;;7.63;2.00;;;2.70;99.90;;;;;;5113025;28;20222;-48
2022/01/05 06:37:53;;;;;;;8.35;2.13;;;2.70;99.90;;;;;;5113387;28;20169;-47
2022/01/05 06:40:19;;;;;;;11.02;2.97;;;2.70;99.90;;;;;;5113208;28;20161;-47
2022/01/05 06:42:45;;;;;;;9.98;2.30;;;2.70;99.90;;;;;;5113312;28;20175;-47
2022/01/05 06:45:10;;;;;;;13.02;2.08;;;2.70;99.90;;;;;;5113285;28;20160;-47
2022/01/05 06:47:36;;;;;;;9.27;1.85;;;2.70;99.90;;;;;;5113341;28;20187;-48
2022/01/05 06:50:01;;;;;;;4.43;1.98;;;2.70;99.90;;;;;;5113405;28;20208;-47
2022/01/05 06:52:27;;;;;;;6.03;2.55;;;2.70;99.90;;;;;;5113439;28;20172;-47
2022/01/05 06:54:53;;;;;;;6.22;2.20;;;2.70;99.90;;;;;;5113238;28;20168;-48
2022/01/05 06:57:19;;;;;;;8.82;2.25;;;2.70;99.90;;;;;;5113232;28;20169;-47
2022/01/05 06:59:44;;;;;;;9.32;2.85;;;2.70;99.90;;;;;;5112861;28;20256;-48
2022/01/05 07:02:10;;;;;;;8.05;1.98;;;2.70;99.90;;;;;;5113146;28;20587;-48
2022/01/05 07:04:36;;;;;;;9.75;2.65;;;2.70;99.90;;;;;;5094810;28;20583;-47
2022/01/05 07:07:01;;;;;;;7.40;3.00;;;2.80;99.90;;;;;;5113034;28;20229;-47
2022/01/05 07:09:27;;;;;;;7.85;2.58;;;2.80;99.90;;;;;;5113210;28;20236;-47
2022/01/05 07:11:53;;;;;;;17.00;2.88;;;2.80;99.90;;;;;;5112582;28;20295;-47
2022/01/05 07:14:18;;;;;;;5.97;2.28;;;2.80;99.90;;;;;;5112868;28;20176;-48
2022/01/05 07:16:44;;;;;;;11.50;3.15;;;2.80;99.90;;;;;;5112778;28;20597;-47
2022/01/05 07:19:09;;;;;;;4.85;2.45;;;2.80;99.90;;;;;;5112827;28;20161;-47
2022/01/05 07:21:35;;;;;;;14.05;2.65;;;2.80;99.90;;;;;;5112763;28;20536;-48
2022/01/05 07:24:02;;;;;;;11.85;3.13;;;2.80;99.90;;;;;;5112973;28;20213;-47
2022/01/05 07:26:28;;;;;;;6.28;2.60;;;2.80;99.90;;;;;;5112999;28;20182;-47
2022/01/05 07:28:54;;;;;;;14.77;2.35;;;2.80;99.90;;;;;;5111418;28;20208;-48
2022/01/05 07:31:20;;;;;;;11.05;3.63;;;2.80;99.90;;;;;;5112889;28;20180;-48
2022/01/05 07:33:46;;;;;;;11.02;2.25;;;2.80;99.90;;;;;;5112587;28;20209;-48
2022/01/05 07:36:12;;;;;;;12.32;2.67;;;2.80;99.90;;;;;;5112563;28;20157;-47
2022/01/05 07:38:37;;;;;;;6.80;2.45;;;2.80;99.90;;;;;;5112453;28;20552;-49
2022/01/05 07:41:04;;;;;;;11.30;2.78;;;2.80;99.90;;;;;;5112490;28;20214;-47
2022/01/05 07:43:29;;;;;;;11.90;2.95;;;2.90;99.90;;;;;;5094500;28;20267;-48
2022/01/05 07:45:55;;;;;;;7.30;2.63;;;2.90;99.90;;;;;;5112019;28;20240;-47
2022/01/05 07:48:20;;;;;;;8.35;2.92;;;2.90;99.90;;;;;;5111916;28;20161;-47
2022/01/05 07:50:46;;;;;;;16.00;3.10;;;3.00;99.90;;;;;;5112677;28;20210;-47
2022/01/05 07:53:12;;;;;;;10.68;3.38;;;2.90;99.90;;;;;;5112368;28;20171;-47
2022/01/05 07:55:37;;;;;;;11.27;2.47;;;2.90;99.90;;;;;;5112542;28;20191;-49
2022/01/05 07:58:03;;;;;;;7.28;2.78;;;3.00;99.90;;;;;;5112429;28;20647;-47
2022/01/05 08:00:29;;;;;;;14.52;3.50;;;2.90;99.90;;;;;;5112631;28;20168;-48
2022/01/05 08:02:54;;;;;;;9.75;3.70;;;3.00;99.90;;;;;;5112346;28;20503;-47
2022/01/05 08:05:20;;;;;;;8.32;2.70;;;3.00;99.90;;;;;;5094010;28;20220;-47
2022/01/05 08:07:46;;;;;;;8.15;2.47;;;3.00;99.90;;;;;;5112284;28;20533;-47
2022/01/05 08:10:12;;;;;;;9.70;2.88;;;3.00;99.90;;;;;;5112183;28;20192;-47
2022/01/05 08:12:38;;;;;;;11.45;3.70;;;3.00;99.90;;;;;;5112019;28;20204;-47
2022/01/05 08:15:04;;;;;;;4.45;2.35;;;3.00;99.90;;;;;;5112111;28;20170;-48
2022/01/05 08:17:30;;;;;;;4.80;2.20;;;3.10;99.90;;;;;;5112527;28;20195;-47
2022/01/05 08:19:55;;;;;;;5.55;2.08;;;3.10;99.90;;;;;;5112492;28;20192;-47
2022/01/05 08:22:21;;;;;;;12.60;4.20;;;3.10;99.90;;;;;;5112109;28;20169;-47
2022/01/05 08:24:47;;;;;;;11.20;3.17;;;3.10;99.90;;;;;;5112127;28;20171;-47
2022/01/05 08:27:12;;;;;;;16.08;4.57;;;3.10;99.90;;;;;;5112027;28;20168;-50
2022/01/05 08:29:38;;;;;;;9.32;3.08;;;3.10;99.90;;;;;;5112017;28;20208;-47
2022/01/05 08:32:04;;;;;;;14.77;3.78;;;3.20;99.90;;;;;;5112014;28;20210;-47
2022/01/05 08:34:31;;;;;;;11.70;3.33;;;3.20;99.90;;;;;;5112526;28;20199;-48
2022/01/05 08:36:57;;;;;;;19.60;3.53;;;3.20;99.90;;;;;;5112284;28;20176;-49
2022/01/05 08:39:23;;;;;;;5.47;2.72;;;3.20;99.90;;;;;;5111976;28;20173;-47
2022/01/05 08:41:52;;;;;;;9.68;2.65;;;3.20;99.90;;;;;;5111997;28;20202;-48
2022/01/05 08:44:17;;;;;;;10.93;3.10;;;3.20;99.90;;;;;;5111965;28;20168;-48
2022/01/05 08:46:43;;;;;;;9.95;2.47;;;3.30;99.90;;;;;;5111941;28;20217;-48
2022/01/05 08:49:10;;;;;;;11.75;3.08;;;3.30;99.90;;;;;;5111802;28;20247;-47
2022/01/05 08:51:37;;;;;;;10.10;2.00;;;3.30;99.90;;;;;;5111811;28;20628;-48
2022/01/05 08:54:03;;;;;;;5.88;2.10;;;3.30;99.90;;;;;;5111852;28;20161;-47
2022/01/05 08:56:29;;;;;;;17.55;3.08;;;3.30;99.90;;;;;;5112166;28;20176;-48
2022/01/05 08:58:55;;;;;;;7.82;2.80;;;3.40;99.90;;;;;;5114244;28;20164;-48
2022/01/05 09:01:22;;;;;;;5.43;2.25;;;3.40;99.90;;;;;;5115351;28;20256;-48
2022/01/05 09:03:48;;;;;;;7.70;2.60;;;3.40;99.90;;;;;;5115366;28;20160;-47
2022/01/05 09:06:14;;;;;;;11.32;3.20;;;3.40;99.90;;;;;;5115287;28;20179;-48
2022/01/05 09:08:39;;;;;;;6.65;2.95;;;3.40;99.90;;;;;;5115501;28;20208;-48
2022/01/05 09:11:08;;;;;;;8.57;2.65;;;3.30;99.90;;;;;;5115424;28;20764;-49
2022/01/05 09:13:34;;;;;;;7.57;2.47;;;3.40;99.90;;;;;;5115338;28;20255;-48
2022/01/05 09:15:59;;;;;;;6.78;2.45;;;3.40;99.90;;;;;;5115618;28;20252;-49
2022/01/05 09:18:25;;;;;;;8.93;2.70;;;3.60;99.90;;;;;;5115024;28;20173;-48
2022/01/05 09:20:50;;;;;;;14.88;3.15;;;3.50;99.90;;;;;;5115317;28;20168;-47
2022/01/05 09:23:16;;;;;;;6.30;2.28;;;3.50;99.90;;;;;;5114970;28;20736;-49
2022/01/05 09:25:42;;;;;;;7.88;2.90;;;3.50;99.90;;;;;;5115388;28;20251;-48
2022/01/05 09:28:09;;;;;;;5.45;2.50;;;3.60;99.90;;;;;;5115166;28;20168;-48
2022/01/05 09:30:35;;;;;;;5.80;2.50;;;3.60;99.90;;;;;;5115031;28;20211;-48
2022/01/05 09:33:01;;;;;;;7.78;3.17;;;3.70;99.90;;;;;;5115035;28;20156;-47
2022/01/05 09:35:27;;;;;;;15.10;3.22;;;3.80;99.90;;;;;;5115069;28;20526;-47
2022/01/05 09:38:05;;;;;;;7.28;2.53;;;3.80;99.90;;;;;;5114968;28;20294;-47
2022/01/05 09:43:15;;;;;;;12.90;2.40;;;3.80;99.90;;;;;;5114660;28;20651;-49
2022/01/05 09:45:53;;;;;;;8.15;2.65;;;4.00;99.90;;;;;;5114842;28;20176;-48
2022/01/05 09:48:46;;;;;;;6.90;3.03;;;3.90;99.90;;;;;;5114400;28;20156;-48
2022/01/05 09:51:17;;;;;;;9.48;2.45;;;4.00;99.90;;;;;;5066872;28;20183;-49
2022/01/05 09:53:43;;;;;;;5.97;2.45;;;3.90;99.90;;;;;;5114391;28;20176;-48
2022/01/05 09:56:08;;;;;;;9.73;2.63;;;3.90;99.90;;;;;;5114313;28;20169;-48
2022/01/05 09:58:36;;;;;;;8.85;3.63;;;3.90;99.90;;;;;;5114239;28;20176;-49
2022/01/05 10:01:02;;;;;;;8.73;3.15;;;4.00;99.90;;;;;;5111779;28;20168;-49
2022/01/05 10:03:28;;;;;;;16.58;4.43;;;4.10;99.90;;;;;;5127508;27;20533;-48
2022/01/05 10:05:54;;;;;;;8.90;2.85;;;4.10;99.90;;;;;;5115087;27;20197;-49
2022/01/05 10:08:19;;;;;;;4.00;2.25;;;4.20;99.90;;;;;;5133362;27;20200;-49
2022/01/05 10:10:45;;;;;;;12.15;2.83;;;4.20;99.90;;;;;;5133653;27;20186;-48
2022/01/05 10:13:11;;;;;;;10.05;3.05;;;4.30;99.90;;;;;;5134637;27;20160;-49
2022/01/05 10:15:36;;;;;;;8.27;2.90;;;4.30;99.90;;;;;;5134557;27;20205;-49
2022/01/05 10:18:15;;;;;;;7.13;2.70;;;4.40;99.90;;;;;;5134651;27;20288;-49
2022/01/05 10:21:03;;;;;;;13.13;3.40;;;4.40;99.90;;;;;;5134623;27;20175;-48
2022/01/05 10:23:45;;;;;;;6.65;2.13;;;4.50;99.90;;;;;;5134643;27;20160;-50
2022/01/05 10:26:21;;;;;;;8.88;2.95;;;4.50;99.90;;;;;;5134543;27;20203;-49
2022/01/05 10:28:48;;;;;;;8.63;2.80;;;4.40;99.90;;;;;;5134194;27;20229;-50
2022/01/05 10:31:19;;;;;;;11.93;3.63;;;4.40;99.90;;;;;;5134159;27;20191;-49
2022/01/05 10:33:45;;;;;;;6.18;2.30;;;4.30;99.90;;;;;;5134128;27;20204;-50
2022/01/05 10:36:10;;;;;;;8.82;3.25;;;4.30;99.90;;;;;;5134135;27;20171;-49
2022/01/05 10:38:36;;;;;;;8.85;2.65;;;4.30;99.90;;;;;;5134276;27;20168;-50
2022/01/05 10:41:19;;;;;;;9.30;3.45;;;4.30;99.90;;;;;;5134021;27;20163;-50
2022/01/05 10:44:12;;;;;;;8.48;2.95;;;4.30;99.90;;;;;;5133945;27;20164;-49
2022/01/05 10:46:41;;;;;;;18.85;3.30;;;4.30;99.90;;;;;;5115556;27;20282;-48
2022/01/05 10:49:07;;;;;;;13.20;3.20;;;4.40;99.90;;;;;;5133832;27;20196;-48
2022/01/05 10:51:34;;;;;;;12.50;2.83;;;4.40;99.90;;;;;;5133784;27;20216;-49
2022/01/05 10:54:09;;;;;;;8.38;3.00;;;4.50;99.90;;;;;;5134095;27;20243;-47
2022/01/05 10:56:35;;;;;;;11.45;3.35;;;4.60;99.90;;;;;;5133697;27;20587;-48
2022/01/05 10:59:00;;;;;;;11.43;3.78;;;4.60;99.90;;;;;;5133760;27;20670;-46
2022/01/05 11:01:30;;;;;;;19.63;4.57;;;4.70;99.90;;;;;;5133935;27;20259;-48
2022/01/05 11:03:55;;;;;;;11.88;3.60;;;4.70;99.90;;;;;;5133669;27;20152;-48
2022/01/05 11:06:21;;;;;;;15.38;3.60;;;4.60;99.90;;;;;;5133527;27;20590;-47
2022/01/05 11:08:59;;;;;;;9.07;2.72;;;4.60;99.90;;;;;;5132929;27;20221;-48
2022/01/05 11:11:28;;;;;;;9.25;3.40;;;4.80;99.90;;;;;;5133377;27;20223;-47
2022/01/05 11:13:54;;;;;;;16.05;3.75;;;4.80;99.90;;;;;;5133115;27;20170;-48
2022/01/05 11:16:25;;;;;;;18.98;3.67;;;4.90;99.90;;;;;;5133327;27;20268;-49
2022/01/05 11:19:29;;;;;;;9.65;3.03;;;4.90;99.90;;;;;;5132783;27;20601;-49
2022/01/05 11:22:07;;;;;;;5.15;2.75;;;4.90;99.90;;;;;;5132611;27;20170;-48
2022/01/05 11:24:53;;;;;;;11.07;3.30;;;4.90;99.90;;;;;;5132779;27;20195;-48
2022/01/05 11:27:27;;;;;;;7.00;2.78;;;4.90;99.90;;;;;;5133058;27;20164;-48
2022/01/05 11:29:54;;;;;;;7.40;3.35;;;4.80;99.90;;;;;;5132861;27;20207;-48
2022/01/05 11:32:24;;;;;;;10.73;2.97;;;4.80;99.90;;;;;;5132992;27;20164;-49
2022/01/05 11:34:51;;;;;;;8.57;3.10;;;4.90;99.90;;;;;;5133296;27;20240;-48
2022/01/05 11:37:18;;;;;;;7.70;3.60;;;4.90;99.90;;;;;;5133255;27;20202;-47
2022/01/05 11:39:52;;;;;;;10.75;3.50;;;5.00;99.90;;;;;;5133126;27;20579;-47
2022/01/05 11:42:27;;;;;;;7.13;3.03;;;5.00;99.90;;;;;;5133116;27;20156;-47
2022/01/05 11:44:54;;;;;;;7.40;2.95;;;4.90;99.90;;;;;;5132944;28;20669;-47
2022/01/05 11:47:29;;;;;;;11.77;3.05;;;5.00;99.90;;;;;;5132951;28;20152;-49
2022/01/05 11:50:26;;;;;;;10.77;3.45;;;4.90;99.90;;;;;;5132770;28;20208;-48
2022/01/05 11:53:00;;;;;;;10.63;3.17;;;4.90;99.90;;;;;;5088849;28;20236;-49
2022/01/05 11:55:31;;;;;;;5.55;2.95;;;5.10;99.90;;;;;;5132991;28;20250;-48
2022/01/05 11:58:19;;;;;;;6.70;2.60;;;5.10;99.90;;;;;;5133209;28;20250;-47
2022/01/05 12:00:48;;;;;;;5.53;2.38;;;5.10;99.90;;;;;;5132824;28;20213;-48
2022/01/05 12:03:57;;;;;;;8.57;2.70;;;5.20;99.90;;;;;;5133147;28;20539;-47
2022/01/05 12:06:30;;;;;;;6.85;3.05;;;5.10;99.90;;;;;;5132878;28;20209;-47
2022/01/05 12:08:58;;;;;;;8.88;2.78;;;5.00;99.90;;;;;;5114257;28;20195;-47
2022/01/05 12:11:35;;;;;;;6.53;2.92;;;5.00;99.90;;;;;;5132582;28;20245;-47
2022/01/05 12:14:25;;;;;;;5.50;2.72;;;4.90;99.90;;;;;;5132661;28;20160;-47
2022/01/05 12:17:11;;;;;;;15.45;2.88;;;4.90;99.90;;;;;;5114319;28;20187;-47
2022/01/05 12:19:46;;;;;;;8.30;3.33;;;4.90;99.90;;;;;;5132783;28;20171;-47
2022/01/05 12:22:23;;;;;;;13.80;4.32;;;5.00;99.90;;;;;;5132580;28;20179;-49
2022/01/05 12:25:03;;;;;;;9.13;2.90;;;5.00;99.90;;;;;;5132290;28;20639;-49
2022/01/05 12:27:49;;;;;;;12.20;2.47;;;5.10;99.90;;;;;;5133151;28;20216;-49
2022/01/05 12:30:18;;;;;;;5.60;2.22;;;5.20;99.90;;;;;;5132202;28;20231;-49
2022/01/05 12:32:46;;;;;;;9.43;2.75;;;5.20;99.90;;;;;;5133235;27;20655;-48
2022/01/05 12:35:15;;;;;;;9.05;2.63;;;5.20;99.90;;;;;;5136186;27;20168;-49
2022/01/05 12:37:56;;;;;;;8.90;3.22;;;5.20;99.90;;;;;;5136492;27;20217;-48
2022/01/05 12:40:42;;;;;;;8.30;3.13;;;5.30;99.90;;;;;;5135851;27;20254;-49
2022/01/05 12:43:10;;;;;;;11.45;3.63;;;5.20;99.90;;;;;;5135948;27;20164;-50
2022/01/05 12:45:45;;;;;;;13.75;3.38;;;5.30;99.90;;;;;;5136422;27;20164;-49
2022/01/05 12:48:32;;;;;;;11.20;4.13;;;5.30;99.90;;;;;;5136038;27;20167;-49
2022/01/05 12:51:17;;;;;;;7.65;3.17;;;5.30;99.90;;;;;;5136803;27;20213;-47
2022/01/05 12:54:00;;;;;;;9.07;3.60;;;5.30;99.90;;;;;;5135827;27;20164;-49
2022/01/05 12:56:32;;;;;;;14.13;3.40;;;5.30;99.90;;;;;;5118574;27;20214;-48
2022/01/05 12:58:58;;;;;;;14.55;3.22;;;5.20;99.90;;;;;;5136245;27;20264;-48
2022/01/05 13:01:26;;;;;;;9.38;3.38;;;5.20;99.90;;;;;;5136042;27;20168;-49